sensor_id;sensor_type;location;lat;lon;timestamp;temperature;humidity
21425;DHT22;10873;51.132;16.848;2023-08-30T00:00:48;27.40;67.60
21425;DHT22;10873;51.132;16.848;2023-08-30T00:03:31;27.50;67.70
21425;DHT22;10873;51.132;16.848;2023-08-30T00:06:02;27.40;67.60
21425;DHT22;10873;51.132;16.848;2023-08-30T00:08:29;27.40;67.60
21425;DHT22;10873;51.132;16.848;2023-08-30T00:10:56;27.40;67.60
21425;DHT22;10873;51.132;16.848;2023-08-30T00:13:24;27.40;67.60
21425;DHT22;10873;51.132;16.848;2023-08-30T00:15:50;27.50;67.60
21425;DHT22;10873;51.132;16.848;2023-08-30T00:18:17;27.50;67.60
21425;DHT22;10873;51.132;16.848;2023-08-30T00:20:44;27.50;67.60
21425;DHT22;10873;51.132;16.848;2023-08-30T00:23:10;27.40;67.60
21425;DHT22;10873;51.132;16.848;2023-08-30T00:25:36;27.50;67.60
21425;DHT22;10873;51.132;16.848;2023-08-30T00:28:04;27.50;67.70
21425;DHT22;10873;51.132;16.848;2023-08-30T00:30:32;27.50;67.60
21425;DHT22;10873;51.132;16.848;2023-08-30T00:32:58;27.50;67.60
21425;DHT22;10873;51.132;16.848;2023-08-30T00:35:24;27.50;67.60
21425;DHT22;10873;51.132;16.848;2023-08-30T00:37:50;27.50;67.60
21425;DHT22;10873;51.132;16.848;2023-08-30T00:40:16;27.50;67.60
21425;DHT22;10873;51.132;16.848;2023-08-30T00:42:42;27.50;67.60
21425;DHT22;10873;51.132;16.848;2023-08-30T00:45:10;27.50;67.60
21425;DHT22;10873;51.132;16.848;2023-08-30T00:47:36;27.50;67.50
21425;DHT22;10873;51.132;16.848;2023-08-30T00:50:02;27.50;67.50
21425;DHT22;10873;51.132;16.848;2023-08-30T00:52:29;27.50;67.50
21425;DHT22;10873;51.132;16.848;2023-08-30T00:54:55;27.50;67.50
21425;DHT22;10873;51.132;16.848;2023-08-30T00:57:21;27.50;67.50
21425;DHT22;10873;51.132;16.848;2023-08-30T00:59:47;27.50;67.50
21425;DHT22;10873;51.132;16.848;2023-08-30T01:02:15;27.50;67.50
21425;DHT22;10873;51.132;16.848;2023-08-30T01:04:41;27.50;67.50
21425;DHT22;10873;51.132;16.848;2023-08-30T01:07:07;27.50;67.50
21425;DHT22;10873;51.132;16.848;2023-08-30T01:09:33;27.50;67.40
21425;DHT22;10873;51.132;16.848;2023-08-30T01:12:03;27.50;67.50
21425;DHT22;10873;51.132;16.848;2023-08-30T01:14:37;27.50;67.40
21425;DHT22;10873;51.132;16.848;2023-08-30T01:17:07;27.50;67.40
21425;DHT22;10873;51.132;16.848;2023-08-30T01:19:42;27.50;67.40
21425;DHT22;10873;51.132;16.848;2023-08-30T01:22:15;27.50;67.40
21425;DHT22;10873;51.132;16.848;2023-08-30T01:24:48;27.50;67.40
21425;DHT22;10873;51.132;16.848;2023-08-30T01:27:16;27.50;67.40
21425;DHT22;10873;51.132;16.848;2023-08-30T01:29:44;27.50;67.40
21425;DHT22;10873;51.132;16.848;2023-08-30T01:32:12;27.50;67.40
21425;DHT22;10873;51.132;16.848;2023-08-30T01:34:40;27.50;67.40
21425;DHT22;10873;51.132;16.848;2023-08-30T01:37:08;27.50;67.40
21425;DHT22;10873;51.132;16.848;2023-08-30T01:39:34;27.50;67.40
21425;DHT22;10873;51.132;16.848;2023-08-30T01:42:01;27.50;67.40
21425;DHT22;10873;51.132;16.848;2023-08-30T01:44:30;27.50;67.40
21425;DHT22;10873;51.132;16.848;2023-08-30T01:46:57;27.40;67.30
21425;DHT22;10873;51.132;16.848;2023-08-30T01:49:23;27.50;67.40
21425;DHT22;10873;51.132;16.848;2023-08-30T01:51:51;27.50;67.40
21425;DHT22;10873;51.132;16.848;2023-08-30T01:54:18;27.50;67.40
21425;DHT22;10873;51.132;16.848;2023-08-30T01:56:46;27.50;67.40
21425;DHT22;10873;51.132;16.848;2023-08-30T01:59:12;27.50;67.40
21425;DHT22;10873;51.132;16.848;2023-08-30T02:01:40;27.50;67.30
21425;DHT22;10873;51.132;16.848;2023-08-30T02:04:06;27.50;67.30
21425;DHT22;10873;51.132;16.848;2023-08-30T02:06:35;27.40;67.20
21425;DHT22;10873;51.132;16.848;2023-08-30T02:09:09;27.40;67.20
21425;DHT22;10873;51.132;16.848;2023-08-30T02:11:42;27.40;67.20
21425;DHT22;10873;51.132;16.848;2023-08-30T02:14:10;27.40;67.20
21425;DHT22;10873;51.132;16.848;2023-08-30T02:16:37;27.40;67.20
21425;DHT22;10873;51.132;16.848;2023-08-30T02:19:06;27.40;67.20
21425;DHT22;10873;51.132;16.848;2023-08-30T02:21:32;27.40;67.20
21425;DHT22;10873;51.132;16.848;2023-08-30T02:23:58;27.40;67.20
21425;DHT22;10873;51.132;16.848;2023-08-30T02:26:24;27.50;67.30
21425;DHT22;10873;51.132;16.848;2023-08-30T02:28:50;27.50;67.30
21425;DHT22;10873;51.132;16.848;2023-08-30T02:31:16;27.40;67.20
21425;DHT22;10873;51.132;16.848;2023-08-30T02:33:42;27.40;67.20
21425;DHT22;10873;51.132;16.848;2023-08-30T02:36:10;27.40;67.70
21425;DHT22;10873;51.132;16.848;2023-08-30T02:38:36;27.40;68.00
21425;DHT22;10873;51.132;16.848;2023-08-30T02:41:02;27.40;67.20
21425;DHT22;10873;51.132;16.848;2023-08-30T02:43:28;27.40;67.10
21425;DHT22;10873;51.132;16.848;2023-08-30T02:45:55;27.40;67.10
21425;DHT22;10873;51.132;16.848;2023-08-30T02:48:20;27.40;67.20
21425;DHT22;10873;51.132;16.848;2023-08-30T02:50:47;27.40;67.20
21425;DHT22;10873;51.132;16.848;2023-08-30T02:53:14;27.40;67.10
21425;DHT22;10873;51.132;16.848;2023-08-30T02:55:40;27.40;67.10
21425;DHT22;10873;51.132;16.848;2023-08-30T02:58:06;27.40;67.10
21425;DHT22;10873;51.132;16.848;2023-08-30T03:00:32;27.40;67.10
21425;DHT22;10873;51.132;16.848;2023-08-30T03:03:00;27.40;67.20
21425;DHT22;10873;51.132;16.848;2023-08-30T03:05:26;27.40;67.10
21425;DHT22;10873;51.132;16.848;2023-08-30T03:07:52;27.40;67.10
21425;DHT22;10873;51.132;16.848;2023-08-30T03:10:20;27.40;67.10
21425;DHT22;10873;51.132;16.848;2023-08-30T03:12:46;27.40;67.10
21425;DHT22;10873;51.132;16.848;2023-08-30T03:15:12;27.40;67.10
21425;DHT22;10873;51.132;16.848;2023-08-30T03:17:38;27.40;67.10
21425;DHT22;10873;51.132;16.848;2023-08-30T03:20:05;27.40;67.10
21425;DHT22;10873;51.132;16.848;2023-08-30T03:22:31;27.40;67.10
21425;DHT22;10873;51.132;16.848;2023-08-30T03:24:58;27.40;67.10
21425;DHT22;10873;51.132;16.848;2023-08-30T03:27:26;27.40;67.10
21425;DHT22;10873;51.132;16.848;2023-08-30T03:29:52;27.40;67.10
21425;DHT22;10873;51.132;16.848;2023-08-30T03:32:20;27.40;67.10
21425;DHT22;10873;51.132;16.848;2023-08-30T03:34:46;27.40;67.10
21425;DHT22;10873;51.132;16.848;2023-08-30T03:37:13;27.40;67.20
21425;DHT22;10873;51.132;16.848;2023-08-30T03:39:39;27.40;67.20
21425;DHT22;10873;51.132;16.848;2023-08-30T03:42:06;27.40;67.20
21425;DHT22;10873;51.132;16.848;2023-08-30T03:44:33;27.40;67.20
21425;DHT22;10873;51.132;16.848;2023-08-30T03:46:59;27.40;67.20
21425;DHT22;10873;51.132;16.848;2023-08-30T03:49:25;27.40;67.20
21425;DHT22;10873;51.132;16.848;2023-08-30T03:51:51;27.40;67.20
21425;DHT22;10873;51.132;16.848;2023-08-30T03:54:17;27.40;67.20
21425;DHT22;10873;51.132;16.848;2023-08-30T03:56:43;27.40;67.20
21425;DHT22;10873;51.132;16.848;2023-08-30T03:59:10;27.40;67.20
21425;DHT22;10873;51.132;16.848;2023-08-30T04:01:38;27.30;67.20
21425;DHT22;10873;51.132;16.848;2023-08-30T04:04:04;27.30;67.10
21425;DHT22;10873;51.132;16.848;2023-08-30T04:06:31;27.30;67.20
21425;DHT22;10873;51.132;16.848;2023-08-30T04:08:57;27.40;67.20
21425;DHT22;10873;51.132;16.848;2023-08-30T04:11:23;27.40;67.20
21425;DHT22;10873;51.132;16.848;2023-08-30T04:13:49;27.30;67.20
21425;DHT22;10873;51.132;16.848;2023-08-30T04:16:15;27.30;67.90
21425;DHT22;10873;51.132;16.848;2023-08-30T04:18:43;27.40;67.20
21425;DHT22;10873;51.132;16.848;2023-08-30T04:21:09;27.40;67.10
21425;DHT22;10873;51.132;16.848;2023-08-30T04:23:35;27.40;67.10
21425;DHT22;10873;51.132;16.848;2023-08-30T04:26:01;27.40;67.00
21425;DHT22;10873;51.132;16.848;2023-08-30T04:28:27;27.40;67.00
21425;DHT22;10873;51.132;16.848;2023-08-30T04:30:53;27.40;66.90
21425;DHT22;10873;51.132;16.848;2023-08-30T04:33:19;27.40;66.90
21425;DHT22;10873;51.132;16.848;2023-08-30T04:35:50;27.40;66.80
21425;DHT22;10873;51.132;16.848;2023-08-30T04:38:16;27.40;66.80
21425;DHT22;10873;51.132;16.848;2023-08-30T04:40:42;27.40;66.80
21425;DHT22;10873;51.132;16.848;2023-08-30T04:43:08;27.50;66.80
21425;DHT22;10873;51.132;16.848;2023-08-30T04:45:34;27.50;66.80
21425;DHT22;10873;51.132;16.848;2023-08-30T04:48:01;27.40;66.70
21425;DHT22;10873;51.132;16.848;2023-08-30T04:50:27;27.40;66.70
21425;DHT22;10873;51.132;16.848;2023-08-30T04:52:54;27.50;66.80
21425;DHT22;10873;51.132;16.848;2023-08-30T04:55:20;27.50;66.80
21425;DHT22;10873;51.132;16.848;2023-08-30T04:57:47;27.40;66.70
21425;DHT22;10873;51.132;16.848;2023-08-30T05:00:14;27.50;66.80
21425;DHT22;10873;51.132;16.848;2023-08-30T05:02:40;27.50;66.80
21425;DHT22;10873;51.132;16.848;2023-08-30T05:05:09;27.40;66.70
21425;DHT22;10873;51.132;16.848;2023-08-30T05:07:35;27.40;66.70
21425;DHT22;10873;51.132;16.848;2023-08-30T05:10:03;27.50;66.90
21425;DHT22;10873;51.132;16.848;2023-08-30T05:12:29;27.40;66.80
21425;DHT22;10873;51.132;16.848;2023-08-30T05:14:55;27.40;66.80
21425;DHT22;10873;51.132;16.848;2023-08-30T05:17:21;27.40;66.80
21425;DHT22;10873;51.132;16.848;2023-08-30T05:19:47;27.40;66.80
21425;DHT22;10873;51.132;16.848;2023-08-30T05:22:13;27.40;66.80
21425;DHT22;10873;51.132;16.848;2023-08-30T05:24:39;27.40;66.90
21425;DHT22;10873;51.132;16.848;2023-08-30T05:27:07;27.40;66.90
21425;DHT22;10873;51.132;16.848;2023-08-30T05:29:32;27.40;66.90
21425;DHT22;10873;51.132;16.848;2023-08-30T05:31:59;27.40;66.90
21425;DHT22;10873;51.132;16.848;2023-08-30T05:34:25;27.40;66.90
21425;DHT22;10873;51.132;16.848;2023-08-30T05:36:52;27.40;66.90
21425;DHT22;10873;51.132;16.848;2023-08-30T05:39:18;27.40;66.90
21425;DHT22;10873;51.132;16.848;2023-08-30T05:41:45;27.40;66.90
21425;DHT22;10873;51.132;16.848;2023-08-30T05:44:12;27.40;66.90
21425;DHT22;10873;51.132;16.848;2023-08-30T05:46:38;27.40;66.90
21425;DHT22;10873;51.132;16.848;2023-08-30T05:49:04;27.40;66.90
21425;DHT22;10873;51.132;16.848;2023-08-30T05:51:30;27.40;66.90
21425;DHT22;10873;51.132;16.848;2023-08-30T05:53:56;27.40;66.90
21425;DHT22;10873;51.132;16.848;2023-08-30T05:56:22;27.40;66.90
21425;DHT22;10873;51.132;16.848;2023-08-30T05:58:48;27.40;66.90
21425;DHT22;10873;51.132;16.848;2023-08-30T06:01:18;27.40;66.80
21425;DHT22;10873;51.132;16.848;2023-08-30T06:03:44;27.40;66.90
21425;DHT22;10873;51.132;16.848;2023-08-30T06:06:11;27.40;66.90
21425;DHT22;10873;51.132;16.848;2023-08-30T06:08:37;27.40;66.80
21425;DHT22;10873;51.132;16.848;2023-08-30T06:11:03;27.40;66.80
21425;DHT22;10873;51.132;16.848;2023-08-30T06:13:29;27.40;66.80
21425;DHT22;10873;51.132;16.848;2023-08-30T06:15:55;27.40;66.70
21425;DHT22;10873;51.132;16.848;2023-08-30T06:18:23;27.40;66.70
21425;DHT22;10873;51.132;16.848;2023-08-30T06:20:49;27.40;66.70
21425;DHT22;10873;51.132;16.848;2023-08-30T06:23:18;27.40;66.70
21425;DHT22;10873;51.132;16.848;2023-08-30T06:25:52;27.40;66.70
21425;DHT22;10873;51.132;16.848;2023-08-30T06:28:18;27.40;66.70
21425;DHT22;10873;51.132;16.848;2023-08-30T06:30:44;27.40;66.70
21425;DHT22;10873;51.132;16.848;2023-08-30T06:33:10;27.40;66.70
21425;DHT22;10873;51.132;16.848;2023-08-30T06:35:38;27.40;67.20
21425;DHT22;10873;51.132;16.848;2023-08-30T06:38:08;27.40;66.70
21425;DHT22;10873;51.132;16.848;2023-08-30T06:40:34;27.40;66.70
21425;DHT22;10873;51.132;16.848;2023-08-30T06:43:00;27.40;66.70
21425;DHT22;10873;51.132;16.848;2023-08-30T06:45:26;27.40;66.70
21425;DHT22;10873;51.132;16.848;2023-08-30T06:47:53;27.40;66.70
21425;DHT22;10873;51.132;16.848;2023-08-30T06:50:19;27.40;66.70
21425;DHT22;10873;51.132;16.848;2023-08-30T06:52:46;27.40;67.80
21425;DHT22;10873;51.132;16.848;2023-08-30T06:55:13;27.30;68.70
21425;DHT22;10873;51.132;16.848;2023-08-30T06:57:39;27.30;68.70
21425;DHT22;10873;51.132;16.848;2023-08-30T07:00:06;27.30;68.60
21425;DHT22;10873;51.132;16.848;2023-08-30T07:02:33;27.30;68.40
21425;DHT22;10873;51.132;16.848;2023-08-30T07:05:00;27.30;68.30
21425;DHT22;10873;51.132;16.848;2023-08-30T07:07:26;27.30;68.30
21425;DHT22;10873;51.132;16.848;2023-08-30T07:09:53;27.20;68.30
21425;DHT22;10873;51.132;16.848;2023-08-30T07:12:19;27.20;70.60
21425;DHT22;10873;51.132;16.848;2023-08-30T07:14:45;27.40;70.90
21425;DHT22;10873;51.132;16.848;2023-08-30T07:17:11;27.60;70.60
21425;DHT22;10873;51.132;16.848;2023-08-30T07:19:37;27.90;70.40
21425;DHT22;10873;51.132;16.848;2023-08-30T07:22:03;28.10;69.40
21425;DHT22;10873;51.132;16.848;2023-08-30T07:24:30;28.30;68.30
21425;DHT22;10873;51.132;16.848;2023-08-30T07:26:57;28.50;67.30
21425;DHT22;10873;51.132;16.848;2023-08-30T07:29:23;28.60;66.50
21425;DHT22;10873;51.132;16.848;2023-08-30T07:31:49;28.90;65.80
21425;DHT22;10873;51.132;16.848;2023-08-30T07:34:19;29.00;65.00
21425;DHT22;10873;51.132;16.848;2023-08-30T07:36:45;29.10;64.40
21425;DHT22;10873;51.132;16.848;2023-08-30T07:39:11;29.20;63.90
21425;DHT22;10873;51.132;16.848;2023-08-30T07:41:37;29.30;63.10
21425;DHT22;10873;51.132;16.848;2023-08-30T07:44:05;29.30;61.90
21425;DHT22;10873;51.132;16.848;2023-08-30T07:46:31;29.20;61.20
21425;DHT22;10873;51.132;16.848;2023-08-30T07:48:57;29.00;61.10
21425;DHT22;10873;51.132;16.848;2023-08-30T07:51:23;28.90;61.20
21425;DHT22;10873;51.132;16.848;2023-08-30T07:53:49;28.70;61.30
21425;DHT22;10873;51.132;16.848;2023-08-30T07:56:15;28.60;61.40
21425;DHT22;10873;51.132;16.848;2023-08-30T07:58:41;28.40;61.40
21425;DHT22;10873;51.132;16.848;2023-08-30T08:01:09;28.30;61.50
21425;DHT22;10873;51.132;16.848;2023-08-30T08:03:35;28.30;61.80
21425;DHT22;10873;51.132;16.848;2023-08-30T08:06:02;28.20;61.80
21425;DHT22;10873;51.132;16.848;2023-08-30T08:08:29;28.20;62.00
21425;DHT22;10873;51.132;16.848;2023-08-30T08:10:55;28.10;62.10
21425;DHT22;10873;51.132;16.848;2023-08-30T08:13:21;28.00;62.20
21425;DHT22;10873;51.132;16.848;2023-08-30T08:15:47;28.00;62.20
21425;DHT22;10873;51.132;16.848;2023-08-30T08:18:14;27.90;62.10
21425;DHT22;10873;51.132;16.848;2023-08-30T08:20:41;27.90;62.10
21425;DHT22;10873;51.132;16.848;2023-08-30T08:23:09;27.80;62.00
21425;DHT22;10873;51.132;16.848;2023-08-30T08:25:34;27.70;61.90
21425;DHT22;10873;51.132;16.848;2023-08-30T08:28:01;27.70;61.80
21425;DHT22;10873;51.132;16.848;2023-08-30T08:30:26;27.70;61.90
21425;DHT22;10873;51.132;16.848;2023-08-30T08:32:53;27.70;61.80
21425;DHT22;10873;51.132;16.848;2023-08-30T08:35:23;27.60;61.60
21425;DHT22;10873;51.132;16.848;2023-08-30T08:37:49;27.60;61.80
21425;DHT22;10873;51.132;16.848;2023-08-30T08:40:15;27.60;61.80
21425;DHT22;10873;51.132;16.848;2023-08-30T08:42:41;27.60;62.00
21425;DHT22;10873;51.132;16.848;2023-08-30T08:45:10;27.50;62.00
21425;DHT22;10873;51.132;16.848;2023-08-30T08:47:38;27.50;62.10
21425;DHT22;10873;51.132;16.848;2023-08-30T08:50:05;27.40;62.00
21425;DHT22;10873;51.132;16.848;2023-08-30T08:52:33;27.50;62.20
21425;DHT22;10873;51.132;16.848;2023-08-30T08:54:59;27.40;62.20
21425;DHT22;10873;51.132;16.848;2023-08-30T08:57:26;27.40;62.40
21425;DHT22;10873;51.132;16.848;2023-08-30T08:59:55;27.40;62.50
21425;DHT22;10873;51.132;16.848;2023-08-30T09:02:21;27.40;62.70
21425;DHT22;10873;51.132;16.848;2023-08-30T09:04:47;27.30;62.60
21425;DHT22;10873;51.132;16.848;2023-08-30T09:07:14;27.30;62.60
21425;DHT22;10873;51.132;16.848;2023-08-30T09:09:41;27.30;62.70
21425;DHT22;10873;51.132;16.848;2023-08-30T09:12:08;27.30;62.70
21425;DHT22;10873;51.132;16.848;2023-08-30T09:14:34;27.30;62.80
21425;DHT22;10873;51.132;16.848;2023-08-30T09:17:01;27.30;62.90
21425;DHT22;10873;51.132;16.848;2023-08-30T09:19:28;27.30;63.00
21425;DHT22;10873;51.132;16.848;2023-08-30T09:21:55;27.30;63.00
21425;DHT22;10873;51.132;16.848;2023-08-30T09:24:22;27.30;63.10
21425;DHT22;10873;51.132;16.848;2023-08-30T09:26:50;27.20;63.10
21425;DHT22;10873;51.132;16.848;2023-08-30T09:29:17;27.20;63.30
21425;DHT22;10873;51.132;16.848;2023-08-30T09:31:44;27.20;63.50
21425;DHT22;10873;51.132;16.848;2023-08-30T09:34:10;27.20;63.60
21425;DHT22;10873;51.132;16.848;2023-08-30T09:36:38;27.20;64.50
21425;DHT22;10873;51.132;16.848;2023-08-30T09:39:04;27.20;63.80
21425;DHT22;10873;51.132;16.848;2023-08-30T09:41:31;27.20;64.10
21425;DHT22;10873;51.132;16.848;2023-08-30T09:44:05;27.10;64.10
21425;DHT22;10873;51.132;16.848;2023-08-30T09:46:32;27.10;64.30
21425;DHT22;10873;51.132;16.848;2023-08-30T09:48:58;27.10;64.40
21425;DHT22;10873;51.132;16.848;2023-08-30T09:51:25;27.10;64.50
21425;DHT22;10873;51.132;16.848;2023-08-30T09:53:55;27.10;64.70
21425;DHT22;10873;51.132;16.848;2023-08-30T09:56:24;27.10;64.70
21425;DHT22;10873;51.132;16.848;2023-08-30T09:58:51;27.10;64.70
21425;DHT22;10873;51.132;16.848;2023-08-30T10:01:20;27.10;64.80
21425;DHT22;10873;51.132;16.848;2023-08-30T10:03:46;27.10;64.80
21425;DHT22;10873;51.132;16.848;2023-08-30T10:06:13;27.10;64.80
21425;DHT22;10873;51.132;16.848;2023-08-30T10:08:41;27.10;65.00
21425;DHT22;10873;51.132;16.848;2023-08-30T10:11:09;27.10;65.10
21425;DHT22;10873;51.132;16.848;2023-08-30T10:13:39;27.00;65.00
21425;DHT22;10873;51.132;16.848;2023-08-30T10:16:12;27.00;65.10
21425;DHT22;10873;51.132;16.848;2023-08-30T10:18:41;27.00;65.20
21425;DHT22;10873;51.132;16.848;2023-08-30T10:21:12;27.00;65.20
21425;DHT22;10873;51.132;16.848;2023-08-30T10:23:39;27.00;65.20
21425;DHT22;10873;51.132;16.848;2023-08-30T10:26:07;27.00;65.30
21425;DHT22;10873;51.132;16.848;2023-08-30T10:28:34;27.00;65.50
21425;DHT22;10873;51.132;16.848;2023-08-30T10:31:01;27.00;65.40
21425;DHT22;10873;51.132;16.848;2023-08-30T10:33:27;27.00;65.40
21425;DHT22;10873;51.132;16.848;2023-08-30T10:36:04;26.90;65.60
21425;DHT22;10873;51.132;16.848;2023-08-30T10:38:32;26.90;65.20
21425;DHT22;10873;51.132;16.848;2023-08-30T10:41:06;26.90;65.20
21425;DHT22;10873;51.132;16.848;2023-08-30T10:43:34;26.90;65.20
21425;DHT22;10873;51.132;16.848;2023-08-30T10:46:02;26.90;65.00
21425;DHT22;10873;51.132;16.848;2023-08-30T10:48:37;26.90;64.80
21425;DHT22;10873;51.132;16.848;2023-08-30T10:51:15;26.90;64.60
21425;DHT22;10873;51.132;16.848;2023-08-30T10:53:41;26.90;64.50
21425;DHT22;10873;51.132;16.848;2023-08-30T10:56:10;26.90;64.60
21425;DHT22;10873;51.132;16.848;2023-08-30T10:58:40;26.90;64.80
21425;DHT22;10873;51.132;16.848;2023-08-30T11:01:09;26.90;65.60
21425;DHT22;10873;51.132;16.848;2023-08-30T11:03:38;26.90;65.80
21425;DHT22;10873;51.132;16.848;2023-08-30T11:06:06;26.90;65.90
21425;DHT22;10873;51.132;16.848;2023-08-30T11:08:33;26.90;65.90
21425;DHT22;10873;51.132;16.848;2023-08-30T11:11:03;26.90;65.70
21425;DHT22;10873;51.132;16.848;2023-08-30T11:13:30;26.80;65.30
21425;DHT22;10873;51.132;16.848;2023-08-30T11:16:00;26.80;65.10
21425;DHT22;10873;51.132;16.848;2023-08-30T11:18:26;26.80;65.10
21425;DHT22;10873;51.132;16.848;2023-08-30T11:20:57;26.80;65.00
21425;DHT22;10873;51.132;16.848;2023-08-30T11:23:25;26.80;64.90
21425;DHT22;10873;51.132;16.848;2023-08-30T11:25:51;26.80;64.70
21425;DHT22;10873;51.132;16.848;2023-08-30T11:28:21;26.80;64.60
21425;DHT22;10873;51.132;16.848;2023-08-30T11:30:48;26.80;64.50
21425;DHT22;10873;51.132;16.848;2023-08-30T11:33:17;26.70;65.20
21425;DHT22;10873;51.132;16.848;2023-08-30T11:35:44;26.70;64.40
21425;DHT22;10873;51.132;16.848;2023-08-30T11:38:11;26.70;64.40
21425;DHT22;10873;51.132;16.848;2023-08-30T11:40:40;26.70;64.60
21425;DHT22;10873;51.132;16.848;2023-08-30T11:43:07;26.70;64.60
21425;DHT22;10873;51.132;16.848;2023-08-30T11:45:33;26.70;64.80
21425;DHT22;10873;51.132;16.848;2023-08-30T11:48:00;26.70;64.90
21425;DHT22;10873;51.132;16.848;2023-08-30T11:50:27;26.60;64.90
21425;DHT22;10873;51.132;16.848;2023-08-30T11:52:53;26.70;65.10
21425;DHT22;10873;51.132;16.848;2023-08-30T11:55:21;26.70;65.10
21425;DHT22;10873;51.132;16.848;2023-08-30T11:57:50;26.60;65.00
21425;DHT22;10873;51.132;16.848;2023-08-30T12:00:19;26.60;65.00
21425;DHT22;10873;51.132;16.848;2023-08-30T12:02:46;26.60;65.00
21425;DHT22;10873;51.132;16.848;2023-08-30T12:05:12;26.60;64.90
21425;DHT22;10873;51.132;16.848;2023-08-30T12:07:39;26.60;65.00
21425;DHT22;10873;51.132;16.848;2023-08-30T12:10:07;26.60;64.80
21425;DHT22;10873;51.132;16.848;2023-08-30T12:12:33;26.60;64.80
21425;DHT22;10873;51.132;16.848;2023-08-30T12:15:07;26.60;64.70
21425;DHT22;10873;51.132;16.848;2023-08-30T12:17:34;26.50;64.60
21425;DHT22;10873;51.132;16.848;2023-08-30T12:20:01;26.50;64.50
21425;DHT22;10873;51.132;16.848;2023-08-30T12:22:38;26.50;64.60
21425;DHT22;10873;51.132;16.848;2023-08-30T12:25:14;26.50;64.70
21425;DHT22;10873;51.132;16.848;2023-08-30T12:27:41;26.50;64.80
21425;DHT22;10873;51.132;16.848;2023-08-30T12:30:10;26.50;64.80
21425;DHT22;10873;51.132;16.848;2023-08-30T12:32:36;26.50;64.90
21425;DHT22;10873;51.132;16.848;2023-08-30T12:35:03;26.50;65.20
21425;DHT22;10873;51.132;16.848;2023-08-30T12:37:29;26.50;65.20
21425;DHT22;10873;51.132;16.848;2023-08-30T12:39:55;26.50;65.30
21425;DHT22;10873;51.132;16.848;2023-08-30T12:42:21;26.50;65.00
21425;DHT22;10873;51.132;16.848;2023-08-30T12:44:48;26.50;65.00
21425;DHT22;10873;51.132;16.848;2023-08-30T12:47:15;26.40;64.90
21425;DHT22;10873;51.132;16.848;2023-08-30T12:49:41;26.40;65.00
21425;DHT22;10873;51.132;16.848;2023-08-30T12:52:07;26.40;65.00
21425;DHT22;10873;51.132;16.848;2023-08-30T12:54:34;26.40;65.10
21425;DHT22;10873;51.132;16.848;2023-08-30T12:56:59;26.40;65.10
21425;DHT22;10873;51.132;16.848;2023-08-30T12:59:26;26.40;65.10
21425;DHT22;10873;51.132;16.848;2023-08-30T13:01:52;26.40;65.30
21425;DHT22;10873;51.132;16.848;2023-08-30T13:04:19;26.40;66.00
21425;DHT22;10873;51.132;16.848;2023-08-30T13:06:46;26.40;66.60
21425;DHT22;10873;51.132;16.848;2023-08-30T13:09:12;26.40;67.20
21425;DHT22;10873;51.132;16.848;2023-08-30T13:11:38;26.40;67.30
21425;DHT22;10873;51.132;16.848;2023-08-30T13:14:04;26.40;67.60
21425;DHT22;10873;51.132;16.848;2023-08-30T13:16:30;26.50;68.10
21425;DHT22;10873;51.132;16.848;2023-08-30T13:18:56;26.50;68.20
21425;DHT22;10873;51.132;16.848;2023-08-30T13:21:23;26.50;70.10
21425;DHT22;10873;51.132;16.848;2023-08-30T13:23:49;26.70;72.60
21425;DHT22;10873;51.132;16.848;2023-08-30T13:26:16;26.90;72.60
21425;DHT22;10873;51.132;16.848;2023-08-30T13:28:42;27.20;72.00
21425;DHT22;10873;51.132;16.848;2023-08-30T13:31:08;27.50;71.50
21425;DHT22;10873;51.132;16.848;2023-08-30T13:33:34;27.80;71.00
21425;DHT22;10873;51.132;16.848;2023-08-30T13:36:01;28.10;70.00
21425;DHT22;10873;51.132;16.848;2023-08-30T13:38:30;28.30;69.10
21425;DHT22;10873;51.132;16.848;2023-08-30T13:40:59;28.50;68.70
21425;DHT22;10873;51.132;16.848;2023-08-30T13:43:26;28.60;68.10
21425;DHT22;10873;51.132;16.848;2023-08-30T13:45:57;28.80;67.60
21425;DHT22;10873;51.132;16.848;2023-08-30T13:48:23;28.90;67.00
21425;DHT22;10873;51.132;16.848;2023-08-30T13:50:50;29.10;66.80
21425;DHT22;10873;51.132;16.848;2023-08-30T13:53:16;29.20;66.40
21425;DHT22;10873;51.132;16.848;2023-08-30T13:55:46;29.30;65.90
21425;DHT22;10873;51.132;16.848;2023-08-30T13:58:14;29.50;65.60
21425;DHT22;10873;51.132;16.848;2023-08-30T14:00:40;29.60;65.10
21425;DHT22;10873;51.132;16.848;2023-08-30T14:03:06;29.70;64.50
21425;DHT22;10873;51.132;16.848;2023-08-30T14:05:33;29.90;64.40
21425;DHT22;10873;51.132;16.848;2023-08-30T14:08:00;30.00;64.00
21425;DHT22;10873;51.132;16.848;2023-08-30T14:10:29;30.10;63.50
21425;DHT22;10873;51.132;16.848;2023-08-30T14:13:00;30.30;63.30
21425;DHT22;10873;51.132;16.848;2023-08-30T14:15:26;30.40;63.20
21425;DHT22;10873;51.132;16.848;2023-08-30T14:17:54;30.50;63.00
21425;DHT22;10873;51.132;16.848;2023-08-30T14:20:21;30.60;62.60
21425;DHT22;10873;51.132;16.848;2023-08-30T14:22:48;30.70;62.60
21425;DHT22;10873;51.132;16.848;2023-08-30T14:25:15;30.70;63.60
21425;DHT22;10873;51.132;16.848;2023-08-30T14:27:42;30.50;63.60
21425;DHT22;10873;51.132;16.848;2023-08-30T14:30:13;30.40;63.00
21425;DHT22;10873;51.132;16.848;2023-08-30T14:32:40;30.20;62.90
21425;DHT22;10873;51.132;16.848;2023-08-30T14:35:07;30.10;62.60
21425;DHT22;10873;51.132;16.848;2023-08-30T14:37:34;29.90;62.40
21425;DHT22;10873;51.132;16.848;2023-08-30T14:40:04;29.80;61.50
21425;DHT22;10873;51.132;16.848;2023-08-30T14:42:30;29.70;60.90
21425;DHT22;10873;51.132;16.848;2023-08-30T14:44:58;29.60;61.30
21425;DHT22;10873;51.132;16.848;2023-08-30T14:47:25;29.50;60.40
21425;DHT22;10873;51.132;16.848;2023-08-30T14:49:51;29.40;60.40
21425;DHT22;10873;51.132;16.848;2023-08-30T14:52:18;29.30;60.30
21425;DHT22;10873;51.132;16.848;2023-08-30T14:54:45;29.20;60.40
21425;DHT22;10873;51.132;16.848;2023-08-30T14:57:11;29.10;60.70
21425;DHT22;10873;51.132;16.848;2023-08-30T14:59:37;29.10;60.70
21425;DHT22;10873;51.132;16.848;2023-08-30T15:02:03;29.10;60.60
21425;DHT22;10873;51.132;16.848;2023-08-30T15:04:31;29.00;60.50
21425;DHT22;10873;51.132;16.848;2023-08-30T15:06:57;29.00;60.60
21425;DHT22;10873;51.132;16.848;2023-08-30T15:09:23;28.90;60.60
21425;DHT22;10873;51.132;16.848;2023-08-30T15:11:49;28.90;60.70
21425;DHT22;10873;51.132;16.848;2023-08-30T15:14:15;28.90;60.80